Time;durP1;ratioP1;P1;durP2;ratioP2;P2;SDS_P1;SDS_P2;PMS_P1;PMS_P2;Temp;Humidity;BMP_temperature;BMP_pressure;BME280_temperature;BME280_humidity;BME280_pressure;Samples;Min_cycle;Max_cycle;Signal;HPM_P1;HPM_P2
2023/06/14 00:01:53;;;;;;;4.50;1.90;;;18.10;83.90;;;;;;6248973;23;20050;-63
2023/06/14 00:04:20;;;;;;;3.60;2.10;;;18.20;83.90;;;;;;6252719;23;20020;-63
2023/06/14 00:06:46;;;;;;;4.38;1.80;;;18.00;84.40;;;;;;6249633;23;20031;-63
2023/06/14 00:09:12;;;;;;;5.13;2.00;;;18.00;84.80;;;;;;6252979;23;20051;-63
2023/06/14 00:11:39;;;;;;;3.72;2.22;;;17.90;84.60;;;;;;6250620;23;20054;-63
2023/06/14 00:14:05;;;;;;;4.82;1.83;;;17.90;84.90;;;;;;6252006;23;20020;-63
2023/06/14 00:16:33;;;;;;;4.15;2.10;;;17.80;85.20;;;;;;6252226;23;20020;-63
2023/06/14 00:18:59;;;;;;;4.78;2.30;;;17.80;85.40;;;;;;6249710;23;20022;-63
2023/06/14 00:21:25;;;;;;;2.67;1.80;;;17.70;85.70;;;;;;6252893;23;20020;-63
2023/06/14 00:23:50;;;;;;;2.83;1.80;;;17.70;85.80;;;;;;6249761;23;20024;-63
2023/06/14 00:26:19;;;;;;;4.25;1.73;;;17.70;86.00;;;;;;6252631;23;20023;-63
2023/06/14 00:28:45;;;;;;;4.75;2.00;;;17.70;85.70;;;;;;6250225;23;20027;-63
2023/06/14 00:31:10;;;;;;;2.80;1.98;;;17.60;86.00;;;;;;6252447;23;20379;-63
2023/06/14 00:33:36;;;;;;;2.55;1.90;;;17.60;86.30;;;;;;6251760;23;20020;-63
2023/06/14 00:36:02;;;;;;;3.05;1.90;;;17.50;86.50;;;;;;6250763;23;20408;-62
2023/06/14 00:38:27;;;;;;;3.90;2.15;;;17.50;86.80;;;;;;6252909;23;20218;-63
2023/06/14 00:40:53;;;;;;;7.88;2.30;;;17.40;87.10;;;;;;6249780;23;20362;-63
2023/06/14 00:43:19;;;;;;;7.18;1.90;;;17.40;87.30;;;;;;6252500;23;20017;-63
2023/06/14 00:45:45;;;;;;;3.20;2.05;;;17.30;87.30;;;;;;6222546;23;20035;-63
2023/06/14 00:48:11;;;;;;;3.97;1.70;;;17.30;87.30;;;;;;6252331;23;20020;-63
2023/06/14 00:50:41;;;;;;;5.18;1.77;;;17.30;87.60;;;;;;6251469;23;20031;-63
2023/06/14 00:53:07;;;;;;;5.22;2.10;;;17.30;87.50;;;;;;6250971;23;20016;-63
2023/06/14 00:55:33;;;;;;;4.32;1.80;;;17.20;87.80;;;;;;6252651;23;20016;-63
2023/06/14 00:58:00;;;;;;;4.57;1.88;;;17.20;88.10;;;;;;6249979;23;20059;-63
2023/06/14 01:00:25;;;;;;;5.97;2.05;;;17.10;87.90;;;;;;6225448;23;20016;-62
2023/06/14 01:02:51;;;;;;;6.13;2.10;;;17.10;88.70;;;;;;6249517;23;20019;-63
2023/06/14 01:05:17;;;;;;;2.45;1.50;;;17.00;88.30;;;;;;6225766;23;20444;-63
2023/06/14 01:08:08;;;;;;;2.22;1.77;;;17.10;88.90;;;;;;6251518;23;20020;-63
2023/06/14 01:10:58;;;;;;;4.18;1.80;;;17.00;89.50;;;;;;6250112;23;20046;-62
2023/06/14 01:13:33;;;;;;;4.47;1.85;;;17.00;89.50;;;;;;6252539;23;20053;-63
2023/06/14 01:15:59;;;;;;;3.13;1.88;;;16.90;89.30;;;;;;6251069;23;20016;-63
2023/06/14 01:18:27;;;;;;;4.28;2.10;;;16.90;89.90;;;;;;6251028;23;20020;-63
2023/06/14 01:20:55;;;;;;;4.13;1.60;;;16.80;90.00;;;;;;6252588;23;20072;-63
2023/06/14 01:23:25;;;;;;;4.55;1.92;;;16.80;89.40;;;;;;6250165;23;20016;-63
2023/06/14 01:25:55;;;;;;;2.13;1.52;;;16.80;90.10;;;;;;6252620;23;20020;-63
2023/06/14 01:28:21;;;;;;;2.08;1.70;;;16.70;90.40;;;;;;6249787;23;20477;-63
2023/06/14 01:30:51;;;;;;;5.18;1.80;;;16.60;90.60;;;;;;6252686;23;20024;-63
2023/06/14 01:33:28;;;;;;;5.68;2.10;;;16.60;90.70;;;;;;6250767;23;20051;-63
2023/06/14 01:35:56;;;;;;;4.35;1.60;;;16.60;90.80;;;;;;6250848;23;20015;-63
2023/06/14 01:38:26;;;;;;;3.13;1.92;;;16.50;90.70;;;;;;6252538;23;20437;-62
2023/06/14 01:40:55;;;;;;;4.32;1.80;;;16.40;91.00;;;;;;6249521;23;20024;-63
2023/06/14 01:43:22;;;;;;;9.23;2.55;;;16.40;91.00;;;;;;6252418;23;20054;-62
2023/06/14 01:45:49;;;;;;;3.17;1.88;;;16.40;91.20;;;;;;6222413;23;20034;-63
2023/06/14 01:48:16;;;;;;;3.22;1.95;;;16.30;91.10;;;;;;6251964;23;20047;-63
2023/06/14 01:50:41;;;;;;;2.47;1.85;;;16.30;91.60;;;;;;6250737;23;20016;-62
2023/06/14 01:53:08;;;;;;;3.03;2.05;;;16.20;91.50;;;;;;6250404;23;20158;-63
2023/06/14 01:55:37;;;;;;;4.78;2.00;;;16.10;91.30;;;;;;6251760;23;20478;-63
2023/06/14 01:58:03;;;;;;;3.65;2.10;;;16.20;91.90;;;;;;6249287;23;20047;-63
2023/06/14 02:00:29;;;;;;;6.47;2.08;;;16.10;91.60;;;;;;6251790;23;20027;-63
2023/06/14 02:02:55;;;;;;;4.70;2.17;;;16.10;92.00;;;;;;6249251;23;20016;-62
2023/06/14 02:05:21;;;;;;;9.35;2.42;;;16.00;92.10;;;;;;6251791;23;20039;-63
2023/06/14 02:07:47;;;;;;;3.60;2.28;;;16.00;92.30;;;;;;6251116;23;20024;-62
2023/06/14 02:10:14;;;;;;;1.98;1.60;;;15.90;92.40;;;;;;6250139;23;20023;-63
2023/06/14 02:12:40;;;;;;;2.25;1.90;;;15.80;92.90;;;;;;6251670;23;20024;-63
2023/06/14 02:15:06;;;;;;;3.88;2.10;;;15.90;92.80;;;;;;6248994;23;20016;-63
2023/06/14 02:17:33;;;;;;;5.82;2.00;;;15.70;92.90;;;;;;6252022;23;20095;-62
2023/06/14 02:19:59;;;;;;;3.15;1.75;;;15.80;92.60;;;;;;6248971;23;20024;-62
2023/06/14 02:22:25;;;;;;;3.78;2.03;;;15.70;92.80;;;;;;6252277;23;20020;-63
2023/06/14 02:24:53;;;;;;;4.47;2.25;;;15.70;92.90;;;;;;6251034;23;20074;-63
2023/06/14 02:27:19;;;;;;;5.45;2.03;;;15.70;93.10;;;;;;6250390;23;20023;-63
2023/06/14 02:29:45;;;;;;;6.20;2.65;;;15.60;93.30;;;;;;6251917;23;20044;-63
2023/06/14 02:32:11;;;;;;;2.88;1.95;;;15.70;93.50;;;;;;6248814;23;20016;-62
2023/06/14 02:34:36;;;;;;;5.35;2.25;;;15.60;93.30;;;;;;6225012;23;20481;-63
2023/06/14 02:37:02;;;;;;;2.67;2.22;;;15.60;93.10;;;;;;6249286;23;20024;-63
2023/06/14 02:39:29;;;;;;;4.43;2.08;;;15.60;93.90;;;;;;6252162;23;20122;-62
2023/06/14 02:41:55;;;;;;;5.30;2.38;;;15.60;93.80;;;;;;6223964;23;20043;-64
2023/06/14 02:44:26;;;;;;;3.15;2.20;;;15.50;94.20;;;;;;6250264;23;20019;-63
2023/06/14 02:46:55;;;;;;;2.30;1.80;;;15.40;94.20;;;;;;6252262;23;20024;-63
2023/06/14 02:49:22;;;;;;;3.33;2.20;;;15.40;94.30;;;;;;6249264;23;20063;-63
2023/06/14 02:51:48;;;;;;;5.75;2.15;;;15.40;94.20;;;;;;6225300;23;20562;-63
2023/06/14 02:54:14;;;;;;;6.47;2.15;;;15.40;94.20;;;;;;6248980;23;20020;-64
2023/06/14 02:56:40;;;;;;;5.63;2.05;;;15.40;94.60;;;;;;6224996;23;20028;-62
2023/06/14 02:59:07;;;;;;;3.60;1.98;;;15.40;94.80;;;;;;6250429;23;20334;-63
2023/06/14 03:01:40;;;;;;;5.70;2.33;;;15.30;94.60;;;;;;6249934;23;20026;-63
2023/06/14 03:04:07;;;;;;;4.53;2.50;;;15.30;94.60;;;;;;6251947;23;20068;-62
2023/06/14 03:06:33;;;;;;;5.20;2.00;;;15.30;95.10;;;;;;6248947;23;20020;-63
2023/06/14 03:09:01;;;;;;;3.55;2.28;;;15.20;94.90;;;;;;6254150;23;20020;-63
2023/06/14 03:11:27;;;;;;;3.28;2.13;;;15.20;95.30;;;;;;6251102;23;20041;-62
2023/06/14 03:13:53;;;;;;;4.70;1.88;;;15.20;95.40;;;;;;6253173;23;20012;-62
2023/06/14 03:16:20;;;;;;;2.65;2.03;;;15.20;95.10;;;;;;6252981;23;20016;-63
2023/06/14 03:18:46;;;;;;;3.08;2.10;;;15.20;95.70;;;;;;6251966;23;20019;-63
2023/06/14 03:21:11;;;;;;;2.85;2.05;;;15.20;95.30;;;;;;6253910;23;20016;-63
2023/06/14 03:23:37;;;;;;;2.72;2.35;;;15.10;95.80;;;;;;6250737;23;20035;-62
2023/06/14 03:26:03;;;;;;;4.13;2.03;;;15.10;95.50;;;;;;6253970;23;20484;-62
2023/06/14 03:28:28;;;;;;;3.13;2.28;;;15.10;95.80;;;;;;6250447;23;20020;-62
2023/06/14 03:30:54;;;;;;;4.82;2.35;;;15.10;95.60;;;;;;6253933;23;20024;-62
2023/06/14 03:33:20;;;;;;;2.63;2.28;;;15.20;95.80;;;;;;6252827;23;20020;-63
2023/06/14 03:35:46;;;;;;;3.70;2.42;;;15.10;96.00;;;;;;6252216;23;20020;-63
2023/06/14 03:38:12;;;;;;;4.95;2.33;;;15.10;96.60;;;;;;6254221;23;20027;-63
2023/06/14 03:40:38;;;;;;;3.45;2.13;;;15.10;96.00;;;;;;6250966;23;20412;-63
2023/06/14 03:43:06;;;;;;;5.18;2.47;;;15.10;96.20;;;;;;6253626;23;20024;-62
2023/06/14 03:45:32;;;;;;;8.35;2.80;;;15.10;96.70;;;;;;6250988;23;20079;-63
2023/06/14 03:48:00;;;;;;;5.03;2.50;;;15.20;96.10;;;;;;6254073;23;20024;-63
2023/06/14 03:50:27;;;;;;;3.85;2.20;;;15.20;96.50;;;;;;6252704;23;20016;-63
2023/06/14 03:52:53;;;;;;;6.93;2.20;;;15.30;96.70;;;;;;6252644;23;20058;-63
2023/06/14 03:55:19;;;;;;;7.82;2.08;;;15.40;96.50;;;;;;6253917;23;20020;-63
2023/06/14 03:57:44;;;;;;;3.95;2.08;;;15.40;96.50;;;;;;6250649;23;20023;-63
2023/06/14 04:00:12;;;;;;;3.15;2.13;;;15.40;96.50;;;;;;6253249;23;20087;-62
2023/06/14 04:02:38;;;;;;;3.80;2.20;;;15.40;96.50;;;;;;6250395;23;20027;-62
2023/06/14 04:05:08;;;;;;;6.15;2.47;;;15.50;96.40;;;;;;6253536;23;20052;-63
2023/06/14 04:07:39;;;;;;;7.80;2.38;;;15.70;96.20;;;;;;6252045;23;20023;-63
2023/06/14 04:10:07;;;;;;;5.53;2.38;;;15.70;96.30;;;;;;6251796;23;20040;-63
2023/06/14 04:12:33;;;;;;;4.60;2.65;;;15.80;96.20;;;;;;6252876;23;20016;-62
2023/06/14 04:14:58;;;;;;;4.55;2.30;;;15.90;96.30;;;;;;6250680;23;20078;-63
2023/06/14 04:17:24;;;;;;;6.25;2.40;;;15.90;96.20;;;;;;6253434;22;20462;-62
2023/06/14 04:19:50;;;;;;;3.78;2.33;;;16.00;96.10;;;;;;6249774;23;20024;-63
2023/06/14 04:22:16;;;;;;;4.97;2.83;;;16.10;95.80;;;;;;6253302;23;20060;-62
2023/06/14 04:24:42;;;;;;;6.50;2.55;;;16.30;95.70;;;;;;6251650;23;20016;-63
2023/06/14 04:27:08;;;;;;;4.95;3.10;;;16.30;95.90;;;;;;6251762;23;20024;-63
2023/06/14 04:29:33;;;;;;;3.22;2.35;;;16.40;95.70;;;;;;6253137;23;20020;-63
2023/06/14 04:32:00;;;;;;;3.05;2.42;;;16.40;96.00;;;;;;6250497;23;20089;-63
2023/06/14 04:34:29;;;;;;;4.50;2.45;;;16.60;95.70;;;;;;6253307;23;20031;-63
2023/06/14 04:36:59;;;;;;;3.95;2.35;;;16.70;95.50;;;;;;6250378;23;20027;-63
2023/06/14 04:39:26;;;;;;;4.25;2.42;;;16.80;95.90;;;;;;6253274;23;20330;-64
2023/06/14 04:41:52;;;;;;;3.03;2.17;;;16.80;95.50;;;;;;6251350;23;20016;-63
2023/06/14 04:44:19;;;;;;;3.47;2.45;;;16.90;95.50;;;;;;6251758;23;20086;-63
2023/06/14 04:46:46;;;;;;;3.95;2.65;;;17.00;95.60;;;;;;6252930;23;20043;-63
2023/06/14 04:49:18;;;;;;;2.58;2.33;;;17.10;95.50;;;;;;6250321;23;20031;-63
2023/06/14 04:51:46;;;;;;;3.67;2.30;;;17.40;95.10;;;;;;6253041;23;20027;-63
2023/06/14 04:54:15;;;;;;;4.50;2.80;;;17.50;95.00;;;;;;6250212;23;20104;-62
2023/06/14 04:56:44;;;;;;;3.17;2.13;;;17.60;94.50;;;;;;6252681;23;20020;-64
2023/06/14 04:59:14;;;;;;;3.47;2.20;;;17.70;94.60;;;;;;6251796;23;20020;-62
2023/06/14 05:01:40;;;;;;;5.10;2.22;;;17.80;94.40;;;;;;6250636;23;20075;-63
2023/06/14 05:04:06;;;;;;;3.95;2.25;;;17.80;94.30;;;;;;6225836;23;20473;-63
2023/06/14 05:06:32;;;;;;;4.18;2.50;;;18.00;94.30;;;;;;6249621;23;20031;-62
2023/06/14 05:08:58;;;;;;;3.75;2.38;;;18.00;94.00;;;;;;6252305;23;20016;-63
2023/06/14 05:11:24;;;;;;;4.10;2.28;;;18.20;93.60;;;;;;6249933;23;20075;-63
2023/06/14 05:13:51;;;;;;;4.15;2.10;;;18.30;93.80;;;;;;6225365;23;20031;-63
2023/06/14 05:16:19;;;;;;;4.93;2.08;;;18.50;93.90;;;;;;6251724;23;20048;-63
2023/06/14 05:18:47;;;;;;;3.25;2.35;;;18.60;93.80;;;;;;6250770;23;20024;-63
2023/06/14 05:21:13;;;;;;;6.55;2.22;;;18.60;93.70;;;;;;6252622;23;20027;-63
2023/06/14 05:23:38;;;;;;;6.43;2.80;;;18.70;93.70;;;;;;6249738;23;20020;-63
2023/06/14 05:26:06;;;;;;;3.92;2.15;;;18.70;93.70;;;;;;6225585;23;20054;-63
2023/06/14 05:28:32;;;;;;;4.15;2.50;;;18.80;93.30;;;;;;6249780;23;20052;-63
2023/06/14 05:30:58;;;;;;;5.07;2.60;;;18.90;93.50;;;;;;6252333;23;20019;-63
2023/06/14 05:33:23;;;;;;;3.10;2.25;;;19.00;93.20;;;;;;6251630;23;20027;-63
2023/06/14 05:35:49;;;;;;;3.65;2.13;;;19.10;93.10;;;;;;6250713;23;20087;-63
2023/06/14 05:38:15;;;;;;;6.10;2.20;;;19.10;92.80;;;;;;6251947;23;20016;-62
2023/06/14 05:40:41;;;;;;;3.22;2.15;;;19.20;92.80;;;;;;6249583;23;20067;-63
2023/06/14 05:43:06;;;;;;;7.57;2.30;;;19.30;92.70;;;;;;6252727;23;20178;-63
2023/06/14 05:45:32;;;;;;;7.70;2.53;;;19.40;92.60;;;;;;6249444;23;20099;-63
2023/06/14 05:47:58;;;;;;;12.45;2.35;;;19.40;92.50;;;;;;6252820;23;20044;-63
2023/06/14 05:50:24;;;;;;;2.80;2.13;;;19.50;92.60;;;;;;6251304;23;20118;-62
2023/06/14 05:52:49;;;;;;;4.30;2.30;;;19.50;92.50;;;;;;6251061;23;20070;-66
2023/06/14 05:55:16;;;;;;;9.05;2.40;;;19.50;92.50;;;;;;6252830;23;20050;-66
2023/06/14 05:57:42;;;;;;;2.92;2.00;;;19.20;92.20;;;;;;6249780;23;20058;-66
2023/06/14 06:00:14;;;;;;;3.25;2.22;;;19.00;92.20;;;;;;6225202;23;20016;-66
2023/06/14 06:02:43;;;;;;;4.07;2.17;;;18.90;92.70;;;;;;6249528;23;20569;-66
2023/06/14 06:05:13;;;;;;;6.15;2.35;;;19.00;92.20;;;;;;6252171;23;20027;-66
2023/06/14 06:07:45;;;;;;;5.45;1.85;;;19.00;92.50;;;;;;6198746;23;20024;-66
2023/06/14 06:10:11;;;;;;;3.55;1.98;;;19.20;92.60;;;;;;6223210;23;20016;-66
2023/06/14 06:12:37;;;;;;;5.35;2.13;;;19.30;92.60;;;;;;6224990;23;20027;-66
2023/06/14 06:15:03;;;;;;;8.15;2.50;;;19.30;92.40;;;;;;6249451;23;20016;-66
2023/06/14 06:17:29;;;;;;;3.58;2.10;;;19.30;92.40;;;;;;6224839;23;20062;-66
2023/06/14 06:19:55;;;;;;;2.92;2.03;;;19.40;92.40;;;;;;6220920;23;20020;-67
2023/06/14 06:22:21;;;;;;;2.92;1.77;;;19.30;91.90;;;;;;6251004;23;20067;-66
2023/06/14 06:24:47;;;;;;;4.35;2.30;;;19.40;91.80;;;;;;6223407;23;20026;-66
2023/06/14 06:27:13;;;;;;;2.53;2.00;;;19.40;91.90;;;;;;6222490;23;20027;-66
2023/06/14 06:29:42;;;;;;;2.15;1.92;;;19.50;92.10;;;;;;6224854;23;20031;-66
2023/06/14 06:32:07;;;;;;;10.45;2.03;;;19.50;91.80;;;;;;6249311;23;20024;-66
2023/06/14 06:34:33;;;;;;;3.70;2.05;;;19.50;91.50;;;;;;6225148;23;20022;-66
2023/06/14 06:36:59;;;;;;;3.30;2.10;;;19.60;91.30;;;;;;6196842;23;20050;-66
2023/06/14 06:39:25;;;;;;;3.85;1.95;;;19.80;91.50;;;;;;6225013;23;20027;-67
2023/06/14 06:41:50;;;;;;;4.00;2.20;;;19.70;91.40;;;;;;6223672;23;20024;-66
2023/06/14 06:44:16;;;;;;;3.22;1.88;;;19.70;91.20;;;;;;6198333;23;20022;-66
2023/06/14 06:46:43;;;;;;;5.68;1.83;;;19.70;90.90;;;;;;6224968;23;20069;-66
2023/06/14 06:49:11;;;;;;;3.92;2.00;;;20.00;91.00;;;;;;6197306;23;20023;-66
2023/06/14 06:51:41;;;;;;;4.13;2.00;;;20.00;91.00;;;;;;6224950;23;20228;-66
2023/06/14 06:54:08;;;;;;;4.07;2.28;;;20.00;90.70;;;;;;6222395;23;20031;-67
2023/06/14 06:56:34;;;;;;;2.75;1.83;;;20.00;90.70;;;;;;6225054;23;20455;-66
2023/06/14 06:59:00;;;;;;;2.45;1.90;;;20.00;90.80;;;;;;6250670;23;20379;-66
2023/06/14 07:01:26;;;;;;;5.22;2.28;;;20.20;90.70;;;;;;6250447;23;20040;-68
2023/06/14 07:03:52;;;;;;;3.30;1.65;;;20.40;91.00;;;;;;6252005;23;20064;-66
2023/06/14 07:06:18;;;;;;;5.50;1.85;;;20.40;90.90;;;;;;6248773;23;20027;-66
2023/06/14 07:08:44;;;;;;;3.53;1.90;;;20.60;90.60;;;;;;6224741;23;20024;-67
2023/06/14 07:11:10;;;;;;;2.80;1.50;;;20.60;90.00;;;;;;6196615;23;20016;-68
2023/06/14 07:13:36;;;;;;;1.83;1.48;;;20.60;90.20;;;;;;6199119;23;20020;-69
2023/06/14 07:16:04;;;;;;;3.35;1.90;;;20.80;90.20;;;;;;6198051;23;20472;-69
2023/06/14 07:18:30;;;;;;;2.22;1.80;;;20.80;90.00;;;;;;6223224;23;20031;-69
2023/06/14 07:20:57;;;;;;;3.33;2.03;;;20.80;89.20;;;;;;6222219;22;20012;-83
2023/06/14 07:23:23;;;;;;;5.13;1.80;;;20.70;89.70;;;;;;6206988;23;20214;-84
2023/06/14 07:25:49;;;;;;;2.25;2.03;;;20.60;89.60;;;;;;6236507;23;20027;-85
2023/06/14 07:28:16;;;;;;;3.63;1.77;;;20.70;89.70;;;;;;6263525;23;20032;-83
2023/06/14 07:30:41;;;;;;;3.97;1.60;;;20.90;89.50;;;;;;6258349;23;20051;-84
2023/06/14 07:33:08;;;;;;;2.58;1.70;;;20.90;90.00;;;;;;6252630;23;20368;-84
2023/06/14 07:35:34;;;;;;;3.78;1.73;;;21.00;88.80;;;;;;6228571;23;20024;-82
2023/06/14 07:37:59;;;;;;;2.60;1.70;;;20.90;89.50;;;;;;6215372;23;20027;-82
2023/06/14 07:40:25;;;;;;;3.17;2.10;;;20.90;89.80;;;;;;6214497;23;20031;-77
2023/06/14 07:42:51;;;;;;;3.45;1.60;;;21.00;89.00;;;;;;6214983;23;20083;-82
2023/06/14 07:45:18;;;;;;;3.60;1.77;;;21.00;88.90;;;;;;6213585;23;20020;-82
2023/06/14 07:47:44;;;;;;;3.38;1.90;;;21.00;87.90;;;;;;6241749;23;20024;-81
2023/06/14 07:50:10;;;;;;;5.35;1.70;;;21.20;88.00;;;;;;6242135;23;20028;-82
2023/06/14 07:52:35;;;;;;;2.88;1.90;;;21.20;88.00;;;;;;6215701;23;20031;-82
2023/06/14 07:55:01;;;;;;;4.28;1.88;;;21.40;89.30;;;;;;6217711;23;20016;-82
2023/06/14 07:57:27;;;;;;;3.33;1.80;;;21.40;87.70;;;;;;6217552;23;20031;-83
2023/06/14 07:59:53;;;;;;;3.20;1.80;;;21.60;87.60;;;;;;6217639;23;20023;-83
2023/06/14 08:02:18;;;;;;;2.35;1.80;;;21.50;87.10;;;;;;6193011;23;20087;-83
2023/06/14 08:04:44;;;;;;;3.67;2.00;;;21.60;87.10;;;;;;6217464;23;20070;-83
2023/06/14 08:07:10;;;;;;;5.10;1.92;;;21.60;86.90;;;;;;6215893;23;20020;-79
2023/06/14 08:09:40;;;;;;;3.15;1.63;;;21.60;84.80;;;;;;6215540;23;20016;-78
2023/06/14 08:12:12;;;;;;;2.25;1.48;;;21.60;84.40;;;;;;6215194;23;20094;-78
2023/06/14 08:14:39;;;;;;;4.75;1.67;;;21.60;85.50;;;;;;6242406;23;20096;-79
2023/06/14 08:17:05;;;;;;;5.43;1.67;;;21.50;86.50;;;;;;6215357;23;20020;-79
2023/06/14 08:19:31;;;;;;;1.90;1.45;;;21.50;85.00;;;;;;6242563;23;20012;-79
2023/06/14 08:21:57;;;;;;;2.72;1.73;;;21.70;86.10;;;;;;6215126;23;20459;-80
2023/06/14 08:24:26;;;;;;;2.20;1.70;;;21.60;85.40;;;;;;6215707;23;20016;-83
2023/06/14 08:26:53;;;;;;;1.63;1.50;;;21.70;85.80;;;;;;6216266;23;20028;-83
2023/06/14 08:29:19;;;;;;;3.35;1.60;;;21.80;84.50;;;;;;6214826;23;20031;-78
2023/06/14 08:31:45;;;;;;;2.05;1.30;;;21.90;83.90;;;;;;6215969;23;20471;-81
2023/06/14 08:34:11;;;;;;;4.93;1.58;;;22.00;84.10;;;;;;6216048;23;20024;-79
2023/06/14 08:36:37;;;;;;;2.75;1.73;;;22.00;84.00;;;;;;6216836;23;20079;-83
2023/06/14 08:39:03;;;;;;;2.85;1.00;;;22.10;83.40;;;;;;6216727;23;20483;-83
2023/06/14 08:41:29;;;;;;;1.77;1.45;;;22.30;84.60;;;;;;6216927;23;20020;-83
2023/06/14 08:43:56;;;;;;;3.10;1.40;;;22.20;82.90;;;;;;6216644;23;20020;-83
2023/06/14 08:46:27;;;;;;;3.45;1.50;;;22.20;82.90;;;;;;6214817;23;20050;-83
2023/06/14 08:48:58;;;;;;;2.13;1.40;;;22.10;81.40;;;;;;6215796;23;20115;-83
2023/06/14 08:51:26;;;;;;;1.88;1.40;;;22.10;81.90;;;;;;6216464;23;20118;-83
2023/06/14 08:53:57;;;;;;;2.95;1.50;;;22.10;82.90;;;;;;6216222;23;20020;-83
2023/06/14 08:56:27;;;;;;;1.70;1.27;;;22.10;82.40;;;;;;6216654;23;20027;-82
2023/06/14 08:58:54;;;;;;;1.42;1.20;;;22.30;83.40;;;;;;6191439;23;20019;-81
2023/06/14 09:01:21;;;;;;;1.73;1.23;;;22.20;83.20;;;;;;6243265;23;20012;-82
2023/06/14 09:03:48;;;;;;;2.47;1.42;;;22.20;82.40;;;;;;6191027;23;20095;-83
2023/06/14 09:06:15;;;;;;;1.35;1.25;;;22.30;82.40;;;;;;6190930;23;20024;-83
2023/06/14 09:08:46;;;;;;;1.88;1.40;;;22.40;82.60;;;;;;6216492;23;20150;-82
2023/06/14 09:11:14;;;;;;;2.70;1.27;;;22.60;82.50;;;;;;6216165;23;20016;-82
2023/06/14 09:13:40;;;;;;;3.25;1.40;;;22.50;81.50;;;;;;6216165;23;20019;-83
2023/06/14 09:16:06;;;;;;;2.42;1.27;;;22.50;81.60;;;;;;6216272;23;20448;-82
2023/06/14 09:18:37;;;;;;;1.58;1.10;;;22.40;81.00;;;;;;6216424;23;20024;-83
2023/06/14 09:21:03;;;;;;;1.48;1.13;;;22.40;79.90;;;;;;6215798;23;20321;-82
2023/06/14 09:23:28;;;;;;;1.45;1.20;;;22.40;82.20;;;;;;6216402;23;20019;-83
2023/06/14 09:25:54;;;;;;;2.78;1.92;;;22.30;79.50;;;;;;6215138;23;20096;-76
2023/06/14 09:28:22;;;;;;;2.33;1.20;;;22.50;81.90;;;;;;6215524;23;20027;-81
2023/06/14 09:30:48;;;;;;;2.03;1.20;;;22.60;82.00;;;;;;6216624;23;20296;-81
2023/06/14 09:33:18;;;;;;;1.90;1.10;;;22.50;80.40;;;;;;6215362;23;20020;-79
2023/06/14 09:35:46;;;;;;;1.42;1.02;;;22.70;80.80;;;;;;6216104;23;20114;-74
2023/06/14 09:38:12;;;;;;;2.47;1.23;;;22.70;79.70;;;;;;6215336;23;20023;-80
2023/06/14 09:40:37;;;;;;;2.85;1.38;;;22.80;79.70;;;;;;6215975;23;20016;-80
2023/06/14 09:43:09;;;;;;;1.58;1.23;;;22.60;78.90;;;;;;6216160;23;20023;-80
2023/06/14 09:45:35;;;;;;;3.05;1.27;;;22.60;79.90;;;;;;6215793;23;20030;-79
2023/06/14 09:48:02;;;;;;;4.55;1.75;;;22.50;78.90;;;;;;6243179;23;20019;-80
2023/06/14 09:50:28;;;;;;;5.60;1.25;;;22.60;79.50;;;;;;6216181;23;20120;-80
2023/06/14 09:53:02;;;;;;;2.97;1.25;;;22.70;80.40;;;;;;6243165;23;20039;-81
2023/06/14 09:55:30;;;;;;;1.60;1.20;;;23.00;78.50;;;;;;6216113;23;20051;-80
2023/06/14 09:57:57;;;;;;;2.17;1.25;;;22.90;78.50;;;;;;6216143;23;20022;-80
2023/06/14 10:00:27;;;;;;;4.10;1.15;;;22.90;77.10;;;;;;6191257;23;20035;-80
2023/06/14 10:03:00;;;;;;;8.18;1.40;;;22.80;77.20;;;;;;6242643;23;20019;-80
2023/06/14 10:05:28;;;;;;;2.33;1.23;;;22.90;77.90;;;;;;6215967;23;20486;-80
2023/06/14 10:08:03;;;;;;;2.10;1.30;;;23.10;78.90;;;;;;6215754;23;20400;-80
2023/06/14 10:10:30;;;;;;;2.95;1.08;;;23.00;77.40;;;;;;6190493;23;20016;-79
2023/06/14 10:12:56;;;;;;;1.40;1.30;;;23.00;77.50;;;;;;6215146;23;20462;-80
2023/06/14 10:15:32;;;;;;;1.30;1.08;;;23.00;77.50;;;;;;6215221;23;20020;-80
2023/06/14 10:18:15;;;;;;;1.92;1.40;;;22.90;77.90;;;;;;6190093;23;20547;-81
2023/06/14 10:20:56;;;;;;;3.22;1.20;;;23.20;78.40;;;;;;6215392;23;20081;-80
2023/06/14 10:23:24;;;;;;;1.73;1.48;;;23.20;79.10;;;;;;6215727;23;20023;-80
2023/06/14 10:25:55;;;;;;;2.50;1.33;;;23.10;77.80;;;;;;6215493;23;20455;-80
2023/06/14 10:28:23;;;;;;;1.17;1.08;;;23.30;79.20;;;;;;6215189;23;20092;-80
2023/06/14 10:31:08;;;;;;;5.22;1.40;;;23.30;77.50;;;;;;6215548;23;20518;-81
2023/06/14 10:33:54;;;;;;;3.33;1.25;;;23.30;77.20;;;;;;6190222;23;20019;-80
2023/06/14 10:36:28;;;;;;;2.33;1.20;;;23.50;79.20;;;;;;6199910;23;20020;-81
2023/06/14 10:39:03;;;;;;;3.55;1.75;;;23.40;77.90;;;;;;6215599;23;20018;-79
2023/06/14 10:41:32;;;;;;;2.35;1.40;;;23.30;78.80;;;;;;6189380;23;20020;-82
2023/06/14 10:44:13;;;;;;;1.90;1.20;;;23.40;78.40;;;;;;6214596;23;20083;-82
2023/06/14 10:46:40;;;;;;;4.35;1.48;;;23.70;77.40;;;;;;6215073;23;20412;-83
2023/06/14 10:49:06;;;;;;;3.28;1.17;;;23.80;78.40;;;;;;6190216;23;20012;-82
2023/06/14 10:51:47;;;;;;;3.85;1.33;;;23.90;78.80;;;;;;6215607;23;20028;-83
2023/06/14 10:54:13;;;;;;;1.38;1.27;;;23.80;77.50;;;;;;6215622;23;20090;-82
2023/06/14 10:56:50;;;;;;;1.98;1.42;;;23.60;78.40;;;;;;6191305;23;20099;-83
2023/06/14 10:59:17;;;;;;;2.22;1.00;;;23.80;77.80;;;;;;6215876;23;20020;-83
2023/06/14 11:01:52;;;;;;;3.88;1.13;;;23.80;77.70;;;;;;6243120;23;20026;-83
2023/06/14 11:04:20;;;;;;;3.22;1.40;;;23.80;76.50;;;;;;6242988;23;20070;-83
2023/06/14 11:06:47;;;;;;;2.58;1.33;;;24.00;77.40;;;;;;6215840;23;20340;-83
2023/06/14 11:09:32;;;;;;;1.30;1.20;;;23.90;77.00;;;;;;6215549;23;20448;-83
2023/06/14 11:11:59;;;;;;;2.63;1.33;;;23.80;77.90;;;;;;6215675;23;20352;-84
2023/06/14 11:14:25;;;;;;;3.72;1.42;;;23.80;77.70;;;;;;6242662;23;20023;-83
2023/06/14 11:16:51;;;;;;;3.63;1.10;;;23.80;76.70;;;;;;6216030;23;20020;-84
2023/06/14 11:19:19;;;;;;;2.92;1.35;;;23.70;76.80;;;;;;6215693;23;20095;-82
2023/06/14 11:21:48;;;;;;;2.42;1.10;;;23.80;76.60;;;;;;6210418;23;20029;-83
2023/06/14 11:24:14;;;;;;;5.78;1.15;;;23.90;78.10;;;;;;6185925;23;20025;-83
2023/06/14 11:26:40;;;;;;;2.08;1.30;;;23.70;77.20;;;;;;6210523;23;20027;-83
2023/06/14 11:29:06;;;;;;;2.53;1.08;;;23.80;76.70;;;;;;6212105;23;20027;-83
2023/06/14 11:31:32;;;;;;;2.60;1.30;;;23.70;77.50;;;;;;6212567;23;20024;-84
2023/06/14 11:34:01;;;;;;;1.95;1.10;;;23.70;77.50;;;;;;6212368;23;20023;-82
2023/06/14 11:36:29;;;;;;;2.95;1.30;;;23.80;77.80;;;;;;6212473;23;20514;-83
2023/06/14 11:39:06;;;;;;;2.22;1.00;;;23.60;76.70;;;;;;6187530;23;20036;-83
2023/06/14 11:41:34;;;;;;;2.65;1.20;;;23.70;78.10;;;;;;6187137;23;20025;-83
2023/06/14 11:44:02;;;;;;;1.83;1.00;;;24.00;78.30;;;;;;6214320;23;20428;-83
2023/06/14 11:46:28;;;;;;;2.10;1.40;;;24.00;77.70;;;;;;6212389;23;20102;-83
2023/06/14 11:48:54;;;;;;;4.93;1.50;;;23.90;77.30;;;;;;6212297;23;20025;-83
2023/06/14 11:51:20;;;;;;;2.83;1.20;;;23.80;77.90;;;;;;6212327;23;20017;-83
2023/06/14 11:53:46;;;;;;;1.60;1.10;;;23.80;76.10;;;;;;6212878;23;20013;-84
2023/06/14 11:56:12;;;;;;;1.88;1.45;;;23.80;77.40;;;;;;6214365;23;20385;-84
2023/06/14 11:58:38;;;;;;;2.80;1.25;;;23.70;77.40;;;;;;6187279;23;20021;-84
2023/06/14 12:01:04;;;;;;;1.83;1.10;;;23.70;77.80;;;;;;6214382;23;20044;-84
2023/06/14 12:03:31;;;;;;;1.75;1.40;;;23.70;77.50;;;;;;6212247;23;20452;-82
2023/06/14 12:06:08;;;;;;;7.22;1.50;;;23.80;78.00;;;;;;6212628;23;20361;-80
2023/06/14 12:08:41;;;;;;;3.88;1.60;;;23.80;79.10;;;;;;6212205;23;20091;-83
2023/06/14 12:11:13;;;;;;;2.22;1.30;;;23.80;78.10;;;;;;6186462;23;20028;-83
2023/06/14 12:13:40;;;;;;;1.42;1.20;;;24.00;79.00;;;;;;6212195;23;20025;-79
2023/06/14 12:16:08;;;;;;;2.67;1.50;;;24.10;79.10;;;;;;6212191;23;20024;-80
2023/06/14 12:18:39;;;;;;;2.00;1.30;;;24.10;78.80;;;;;;6213715;23;20070;-81
2023/06/14 12:21:06;;;;;;;2.20;1.70;;;24.00;78.20;;;;;;6215757;23;20028;-80
2023/06/14 12:23:47;;;;;;;1.83;1.40;;;24.00;77.70;;;;;;6216550;23;20074;-80
2023/06/14 12:26:17;;;;;;;3.60;1.42;;;23.90;78.30;;;;;;6216015;23;20095;-80
2023/06/14 12:28:44;;;;;;;2.80;1.08;;;24.00;79.00;;;;;;6216256;23;20062;-82
2023/06/14 12:31:12;;;;;;;1.70;1.30;;;24.00;78.40;;;;;;6243386;23;20451;-80
2023/06/14 12:33:39;;;;;;;3.65;1.52;;;24.00;78.50;;;;;;6216622;23;20734;-81
2023/06/14 12:36:06;;;;;;;2.00;1.48;;;24.00;78.10;;;;;;6243631;23;20007;-80
2023/06/14 12:38:35;;;;;;;1.50;1.27;;;24.00;78.30;;;;;;6215996;23;20055;-80
2023/06/14 12:41:01;;;;;;;3.50;1.50;;;24.00;79.30;;;;;;6216182;23;20012;-80
2023/06/14 12:43:27;;;;;;;1.45;1.30;;;24.20;79.30;;;;;;6243643;23;20013;-80
2023/06/14 12:45:53;;;;;;;1.63;1.10;;;24.10;79.10;;;;;;6215959;23;20091;-80
2023/06/14 12:48:19;;;;;;;2.88;1.58;;;24.00;79.00;;;;;;6216140;23;20020;-80
2023/06/14 12:50:45;;;;;;;1.73;1.33;;;24.10;79.00;;;;;;6242969;23;20329;-80